Terminal Aerodrome Forecast
Issued by NWS

Home | Current Version | Previous Version | Text Only | Print | Product List | Glossary On
Versions: 1 2 3 4 5 6 7 8 9 10 11 12 13 14 15 16 17 18 19 20
000
FTUS45 KFGZ 021129
TAFSEZ
TAF
KSEZ 021129Z 0212/0312 05011G17KT P6SM SKC
     FM021800 08006KT P6SM SCT050 SCT080 PROB30 0222/0301 VRB10G20KT
      -SHRA BKN050
     FM030300 08011KT P6SM SKC=

USA.gov is the U.S. government's official web portal to all federal, state and local government web resources and services.